Hovedside
METAR-TAF:

METAR-TAF

Lufthavner :

Tartu lufthavn

Tartu, Estland

breddegrad: 58-18N, lengdegrad: 026-44E, høyde over havet: 59 m

Gjeldene værobservasjon

Denne rapporten ble laget for 26 minutter siden, klokken 06:50 UTC
Vind 4 kt fra Vest
Temperatur 16°C
Luftfuktighet 39%
Trykk 1031 hPa
Sikt 10 km eller mer

METAR: EETU 230650Z AUTO 26004KT 9999 NCD 16/02 Q1031

Tid: 10:16 (07:16 UTC)

Varsel

Denne rapporten ble laget for 11 timer og 16 minutter siden, klokken 20:00 UTC
Varsel gyldig fra 22. klokken 21 UTC til 23. klokken 03 UTC
Vind 2 kt fra skiftende retning
Sikt 10 km eller mer
ingen skyer under 1500 m og ingen bygeskyer

TAF: EETU 222000Z 2221/2303 VRB02KT CAVOK

Værobservasjoner og værvarsel for over 4000 flyplasser (METAR- og TAF-rapporter).

Tilgjengelige stasjoner er representert av de røde og gule prikkene på kartet.

Hold musepekeren over prikken for å se navnet på stasjonen.

Klikk så for å se værobservasjoner og -varsler.

For å forandre kartet kan du klikke på den grønne knappen med svart kryss for å zoome inn, på den grønne knappen med strek for å zoome ut, eller på de grønne pilene for å se tilstøtende kart.


METAR-TAF: